Hauptseite
METAR-TAF:

METAR-TAF

Flughäfen :

Flughafen Lüttich

Lüttich, Belgien

Breite: 50-39N, Länge: 005-27E, Höhe: 186 m

Beobachtung

Neuester Wetterbericht von vor 26 Minuten, um 04:20 UTC
Wind 6 kt aus Süd/Südost, variierte zwischen Südost und Süd/Südwest
Temperatur 7°C
Luftfeuchtigkeit 66%
Luftdruck 1022 hPa
Sichtweite 10 km oder mehr
keine Wolken unter 1500 m und keine Kumulonimbus oder Gewitterwolken

METAR: EBLG 170420Z 16006KT 130V200 CAVOK 07/01 Q1022 NOSIG

Zeit: 05:46 (04:46 UTC)

Prognose

Neuester Wetterbericht von vor 5 Stunden und 36 Minuten, um 23:10 UTC
Gültige Prognose vom 17 um 00 UTC bis 18 um 06 UTC
Wind 4 kt aus Süd
Sichtweite 10 km oder mehr
keine Wolken unter 1500 m und keine Kumulonimbus oder Gewitterwolken

TAF: EBLG 162310Z 1700/1806 17004KT CAVOK

Wetterbeobachtungen und Prognosen von mehr als 4000 Flughäfen (METAR und TAF Bericht).

Die verfügbaren Stationen werden durch gelbe und rote Markierungen auf der Karte dargestellt.

Führen Sie die Maus auf sie, um den Namen der Station zu sehen.

Darauf klicken, um die Beobachtung von Wetterbeobachtungen und Prognosen zu sehen.

Um die Karte zu ändern : klicken Sie auf den grünen Tasten mit einem schwarzen Kreuz Zum Vergrößern, auf den grünen Button mit einem Gedankenstrich zu verkleinern, oder auf die grünen Pfeile für benachbarte Karten.


METAR-TAF: